createdAt,value
2019-02-06T00:03:59.632Z,2.30
2019-02-06T00:09:01.838Z,2.33
2019-02-06T00:14:04.950Z,2.30
2019-02-06T00:19:07.063Z,2.24
2019-02-06T00:24:09.252Z,2.39
2019-02-06T00:29:11.319Z,2.39
2019-02-06T00:34:13.439Z,2.11
2019-02-06T00:39:15.653Z,2.18
2019-02-06T00:44:17.767Z,2.34
2019-02-06T00:49:19.986Z,2.27
2019-02-06T00:54:21.880Z,2.43
2019-02-06T00:59:24.262Z,2.38
2019-02-06T01:04:26.834Z,2.35
2019-02-06T01:09:28.866Z,2.24
2019-02-06T01:14:30.881Z,2.24
2019-02-06T01:19:32.988Z,2.15
2019-02-06T01:24:34.946Z,2.06
2019-02-06T01:29:37.099Z,1.93
2019-02-06T01:34:40.138Z,1.60
2019-02-06T01:39:43.347Z,1.50
2019-02-06T01:44:45.551Z,1.55
2019-02-06T01:49:47.465Z,1.40
2019-02-06T01:54:49.516Z,1.22
2019-02-06T01:59:51.932Z,1.22
2019-02-06T02:04:53.914Z,1.10
2019-02-06T02:09:55.829Z,1.06
2019-02-06T02:14:57.739Z,0.91
2019-02-06T02:19:59.658Z,0.74
2019-02-06T02:25:02.893Z,0.66
2019-02-06T02:30:08.084Z,0.62
2019-02-06T02:35:11.220Z,0.66
2019-02-06T02:40:13.498Z,0.65
2019-02-06T02:45:16.610Z,0.57
2019-02-06T02:50:18.939Z,0.56
2019-02-06T02:55:20.970Z,0.65
2019-02-06T03:00:29.808Z,0.46
2019-02-06T03:05:33.920Z,0.48
2019-02-06T03:10:35.933Z,0.30
2019-02-06T03:15:38.347Z,0.32
2019-02-06T03:20:40.381Z,0.37
2019-02-06T03:25:42.309Z,0.36
2019-02-06T03:30:44.303Z,0.22
2019-02-06T03:35:46.231Z,0.15
2019-02-06T03:40:48.276Z,0.09
2019-02-06T03:45:50.273Z,0.07
2019-02-06T03:50:52.183Z,-0.08
2019-02-06T03:55:55.406Z,-0.02
2019-02-06T04:00:57.399Z,-0.18
2019-02-06T04:05:59.325Z,-0.12
2019-02-06T04:11:01.420Z,-0.19
2019-02-06T04:16:03.942Z,-0.35
2019-02-06T04:21:06.135Z,-0.33
2019-02-06T04:26:08.392Z,-0.44
2019-02-06T04:31:10.290Z,-0.45
2019-02-06T04:36:12.445Z,-0.44
2019-02-06T04:41:17.101Z,-0.48
2019-02-06T04:46:19.110Z,-0.51
2019-02-06T04:51:20.970Z,-0.65
2019-02-06T04:56:23.014Z,-0.68
2019-02-06T05:01:25.170Z,-0.72
2019-02-06T05:06:27.216Z,-0.81
2019-02-06T05:11:29.478Z,-0.77
2019-02-06T05:16:31.893Z,-0.79
2019-02-06T05:21:33.989Z,-0.56
2019-02-06T05:26:38.580Z,-0.64
2019-02-06T05:31:40.573Z,-0.72
2019-02-06T05:36:42.532Z,-0.91
2019-02-06T05:41:44.564Z,-0.91
2019-02-06T05:46:46.493Z,-0.87
2019-02-06T05:51:48.474Z,-0.81
2019-02-06T05:56:50.860Z,-0.82
2019-02-06T06:01:52.753Z,-0.78
2019-02-06T06:06:54.710Z,-0.80
2019-02-06T06:11:56.639Z,-0.78
2019-02-06T06:16:58.831Z,-0.82
2019-02-06T06:22:00.723Z,-0.84
2019-02-06T06:27:02.682Z,-0.92
2019-02-06T06:32:04.707Z,-0.90
2019-02-06T06:37:07.980Z,-0.95
2019-02-06T06:42:10.145Z,-0.81
2019-02-06T06:47:12.168Z,-0.88
2019-02-06T06:52:14.487Z,-0.95
2019-02-06T06:57:16.405Z,-0.92
2019-02-06T07:02:18.303Z,-0.85
2019-02-06T07:07:20.254Z,-0.85
2019-02-06T07:12:22.209Z,-0.78
2019-02-06T07:17:24.141Z,-0.80
2019-02-06T07:22:26.032Z,-0.66
2019-02-06T07:27:29.853Z,-0.59
2019-02-06T07:32:32.096Z,-0.49
2019-02-06T07:37:34.245Z,-0.43
2019-02-06T07:42:36.333Z,-0.33
2019-02-06T07:47:38.388Z,-0.39
2019-02-06T07:52:40.397Z,-0.09
2019-02-06T07:57:42.694Z,-0.10
2019-02-06T08:02:44.898Z,0.08
2019-02-06T08:07:47.566Z,0.18
2019-02-06T08:12:50.056Z,0.20
2019-02-06T08:17:52.059Z,0.31
2019-02-06T08:22:54.178Z,0.44
2019-02-06T08:27:56.332Z,0.48
2019-02-06T08:32:58.745Z,0.62
2019-02-06T08:38:00.868Z,0.85
2019-02-06T08:43:03.189Z,1.14
2019-02-06T08:48:05.421Z,1.25
2019-02-06T08:53:07.720Z,1.37
2019-02-06T08:58:09.805Z,1.57
2019-02-06T09:03:12.442Z,1.57
2019-02-06T09:08:14.347Z,1.87
2019-02-06T09:13:16.655Z,2.02
2019-02-06T09:18:18.671Z,2.18
2019-02-06T09:23:20.600Z,2.17
2019-02-06T09:28:22.689Z,2.69
2019-02-06T09:33:24.856Z,2.69
2019-02-06T09:38:26.760Z,3.09
2019-02-06T09:43:28.676Z,3.52
2019-02-06T09:48:30.574Z,3.52
2019-02-06T09:53:32.685Z,3.59
2019-02-06T09:58:34.576Z,3.58
2019-02-06T10:03:36.602Z,3.69
2019-02-06T10:08:38.626Z,3.69
2019-02-06T10:13:40.940Z,4.04
2019-02-06T10:18:42.936Z,4.29
2019-02-06T10:23:45.049Z,4.42
2019-02-06T10:28:47.044Z,4.59
2019-02-06T10:33:49.082Z,4.69
2019-02-06T10:38:51.151Z,4.85
2019-02-06T10:43:53.067Z,5.01
2019-02-06T10:48:54.958Z,5.16
2019-02-06T10:53:58.367Z,4.95
2019-02-06T10:59:00.265Z,4.83
2019-02-06T11:04:02.380Z,5.28
2019-02-06T11:09:06.222Z,5.29
2019-02-06T11:14:08.239Z,5.68
2019-02-06T11:19:10.253Z,6.00
2019-02-06T11:24:12.307Z,6.17
2019-02-06T11:29:14.218Z,6.16
2019-02-06T11:34:16.552Z,6.16
2019-02-06T11:39:22.779Z,6.32
2019-02-06T11:44:24.703Z,6.30
2019-02-06T11:49:33.153Z,6.45
2019-02-06T11:54:35.261Z,6.92
2019-02-06T11:59:37.161Z,7.15
2019-02-06T12:04:39.185Z,7.58
2019-02-06T12:09:41.271Z,7.33
2019-02-06T12:14:43.193Z,7.91
2019-02-06T12:19:45.075Z,7.65
2019-02-06T12:24:47.292Z,7.46
2019-02-06T12:29:49.312Z,7.62
2019-02-06T12:34:51.535Z,8.28
2019-02-06T12:39:54.136Z,8.56
2019-02-06T12:44:58.956Z,8.71
2019-02-06T12:50:00.025Z,8.23
2019-02-06T12:55:05.551Z,8.38
2019-02-06T13:00:12.627Z,7.74
2019-02-06T13:05:14.853Z,7.93
2019-02-06T13:10:17.233Z,7.96
2019-02-06T13:15:19.804Z,8.11
2019-02-06T13:20:23.679Z,8.17
2019-02-06T13:25:25.676Z,8.64
2019-02-06T13:30:29.597Z,8.91
2019-02-06T13:35:31.608Z,9.27
2019-02-06T13:40:44.735Z,9.70
2019-02-06T13:45:40.243Z,10.06
2019-02-06T13:50:42.433Z,9.83
2019-02-06T13:55:44.360Z,9.70
2019-02-06T14:00:46.597Z,9.37
2019-02-06T14:05:49.099Z,9.45
2019-02-06T14:11:00.126Z,8.87
2019-02-06T14:15:55.735Z,8.55
2019-02-06T14:20:57.883Z,9.01
2019-02-06T14:26:23.131Z,9.57
2019-02-06T14:31:45.268Z,9.74
2019-02-06T14:37:09.318Z,10.55
2019-02-06T14:42:36.931Z,10.12
2019-02-06T14:48:10.907Z,9.41
2019-02-06T14:53:29.310Z,8.65
2019-02-06T14:58:49.702Z,8.81
2019-02-06T15:04:29.396Z,9.39
2019-02-06T15:10:00.338Z,8.47
2019-02-06T15:15:33.856Z,8.01
2019-02-06T15:21:19.630Z,7.79
2019-02-06T15:26:57.061Z,7.55
2019-02-06T15:32:37.540Z,7.36
2019-02-06T15:38:21.386Z,7.17
2019-02-06T15:43:59.824Z,6.94
2019-02-06T15:49:23.895Z,6.69
2019-02-06T15:54:44.171Z,6.80
2019-02-06T16:00:28.559Z,6.63
2019-02-06T16:05:55.937Z,6.27
2019-02-06T16:11:42.343Z,6.18
2019-02-06T16:17:11.715Z,5.94
2019-02-06T16:22:39.585Z,5.72
2019-02-06T16:28:05.192Z,5.47
2019-02-06T16:33:35.903Z,5.23
2019-02-06T16:38:52.612Z,5.16
2019-02-06T16:44:34.864Z,4.77
2019-02-06T16:50:17.139Z,4.44
2019-02-06T16:55:48.726Z,4.50
2019-02-06T17:01:11.919Z,4.11
2019-02-06T17:06:53.733Z,4.28
2019-02-06T17:12:46.395Z,4.25
2019-02-06T17:18:23.992Z,4.16
2019-02-06T17:24:13.956Z,3.94
2019-02-06T17:29:55.229Z,3.90
2019-02-06T17:35:19.597Z,3.61
2019-02-06T17:40:35.597Z,3.58
2019-02-06T17:46:00.613Z,3.33
2019-02-06T17:51:41.760Z,3.24
2019-02-06T17:56:43.776Z,3.26
2019-02-06T18:01:50.120Z,3.28
2019-02-06T18:06:52.322Z,3.25
2019-02-06T18:11:54.235Z,3.22
2019-02-06T18:16:56.587Z,3.21
2019-02-06T18:21:58.460Z,3.08
2019-02-06T18:27:00.513Z,2.91
2019-02-06T18:32:03.362Z,2.76
2019-02-06T18:37:05.545Z,2.57
2019-02-06T18:42:07.541Z,2.51
2019-02-06T18:47:09.555Z,2.50
2019-02-06T18:52:20.260Z,2.49
2019-02-06T18:57:16.121Z,2.36
2019-02-06T19:02:18.209Z,2.25
2019-02-06T19:07:20.287Z,2.15
2019-02-06T19:12:22.503Z,1.95
2019-02-06T19:17:24.533Z,1.95
2019-02-06T19:22:26.425Z,2.03
2019-02-06T19:27:28.331Z,2.00
2019-02-06T19:32:30.268Z,1.94
2019-02-06T19:37:32.176Z,1.89
2019-02-06T19:42:34.087Z,1.66
2019-02-06T19:47:36.218Z,1.73
2019-02-06T19:52:38.112Z,1.73
2019-02-06T19:57:40.318Z,1.74
2019-02-06T20:02:43.627Z,1.74
2019-02-06T20:07:45.545Z,1.48
2019-02-06T20:12:47.849Z,1.28
2019-02-06T20:17:51.148Z,1.32
2019-02-06T20:22:53.359Z,1.28
2019-02-06T20:27:55.490Z,1.27
2019-02-06T20:32:57.427Z,1.10
2019-02-06T20:37:59.432Z,1.14
2019-02-06T20:43:01.532Z,0.92
2019-02-06T20:48:03.895Z,0.96
2019-02-06T20:53:05.991Z,0.97
2019-02-06T20:58:07.988Z,0.86
2019-02-06T21:03:10.016Z,0.83
2019-02-06T21:08:12.037Z,1.06
2019-02-06T21:13:13.984Z,1.12
2019-02-06T21:18:16.019Z,1.18
2019-02-06T21:23:18.885Z,1.21
2019-02-06T21:28:20.992Z,1.16
2019-02-06T21:33:22.907Z,1.12
2019-02-06T21:38:24.796Z,1.04
2019-02-06T21:43:26.882Z,1.08
2019-02-06T21:48:28.791Z,1.02
2019-02-06T21:53:30.683Z,0.98
2019-02-06T21:58:32.631Z,0.97
2019-02-06T22:03:34.819Z,0.92
2019-02-06T22:08:36.811Z,0.87
2019-02-06T22:13:40.764Z,0.74
2019-02-06T22:18:42.664Z,0.84
2019-02-06T22:23:44.649Z,0.89
2019-02-06T22:28:46.886Z,0.81
2019-02-06T22:33:49.329Z,0.63
2019-02-06T22:38:51.763Z,0.63
2019-02-06T22:43:53.725Z,0.54
2019-02-06T22:48:55.740Z,0.37
2019-02-06T22:53:57.649Z,0.51
2019-02-06T22:58:59.653Z,0.67
2019-02-06T23:04:01.960Z,0.63
2019-02-06T23:09:06.603Z,0.52
2019-02-06T23:14:17.127Z,0.54
2019-02-06T23:19:12.875Z,0.34
2019-02-06T23:24:15.015Z,0.24
2019-02-06T23:29:17.309Z,0.29
2019-02-06T23:34:19.218Z,0.29
2019-02-06T23:39:21.316Z,0.17
2019-02-06T23:44:28.937Z,-0.05
2019-02-06T23:49:28.130Z,-0.08
2019-02-06T23:54:30.147Z,0.07
2019-02-06T23:59:32.170Z,-0.25
